createdAt,value
2022-12-04T00:01:10.323Z,234.20
2022-12-04T00:03:38.532Z,240.93
2022-12-04T00:06:07.012Z,254.03
2022-12-04T00:08:35.131Z,252.73
2022-12-04T00:11:04.036Z,248.33
2022-12-04T00:13:32.580Z,235.17
2022-12-04T00:16:00.698Z,258.57
2022-12-04T00:18:28.627Z,236.10
2022-12-04T00:20:56.205Z,260.13
2022-12-04T00:23:24.152Z,280.90
2022-12-04T00:25:53.261Z,257.00
2022-12-04T00:28:21.201Z,277.63
2022-12-04T00:30:48.704Z,278.87
2022-12-04T00:33:16.492Z,258.03
2022-12-04T00:35:44.050Z,275.77
2022-12-04T00:38:11.909Z,219.57
2022-12-04T00:40:39.475Z,251.53
2022-12-04T00:43:07.368Z,245.00
2022-12-04T00:45:34.977Z,261.40
2022-12-04T00:48:02.861Z,279.73
2022-12-04T00:50:30.373Z,264.30
2022-12-04T00:52:58.507Z,302.77
2022-12-04T00:55:27.210Z,274.67
2022-12-04T00:57:59.768Z,255.17
2022-12-04T01:00:27.681Z,276.40
2022-12-04T01:02:55.579Z,258.63
2022-12-04T01:05:23.164Z,250.67
2022-12-04T01:07:51.026Z,257.77
2022-12-04T01:10:18.577Z,247.63
2022-12-04T01:12:48.570Z,261.03
2022-12-04T01:15:16.251Z,260.43
2022-12-04T01:17:45.369Z,257.87
2022-12-04T01:20:16.443Z,269.30
2022-12-04T01:22:44.267Z,263.95
2022-12-04T01:25:11.881Z,269.80
2022-12-04T01:27:39.689Z,272.07
2022-12-04T01:30:07.558Z,284.63
2022-12-04T01:32:35.833Z,269.80
2022-12-04T01:35:04.488Z,228.00
2022-12-04T01:37:32.448Z,275.27
2022-12-04T01:40:01.464Z,237.93
2022-12-04T01:42:29.322Z,266.00
2022-12-04T01:45:15.725Z,283.00
2022-12-04T01:47:43.550Z,274.20
2022-12-04T01:50:11.188Z,313.60
2022-12-04T01:52:39.386Z,287.53
2022-12-04T01:55:07.070Z,325.63
2022-12-04T01:57:40.976Z,306.33
2022-12-04T02:00:12.055Z,312.67
2022-12-04T02:02:44.418Z,285.50
2022-12-04T02:05:14.121Z,333.03
2022-12-04T02:07:42.311Z,319.67
2022-12-04T02:10:11.660Z,260.67
2022-12-04T02:12:43.731Z,286.53
2022-12-04T02:15:19.457Z,317.98
2022-12-04T02:17:54.710Z,294.63
2022-12-04T02:20:22.204Z,301.23
2022-12-04T02:23:08.746Z,271.57
2022-12-04T02:25:45.097Z,261.93
2022-12-04T02:28:16.094Z,268.87
2022-12-04T02:30:45.285Z,267.23
2022-12-04T02:33:24.431Z,298.97
2022-12-04T02:36:03.216Z,294.30
2022-12-04T02:38:34.677Z,245.10
2022-12-04T02:41:07.471Z,307.27
2022-12-04T02:43:56.864Z,256.97
2022-12-04T02:46:37.426Z,253.10
2022-12-04T02:49:08.315Z,248.37
2022-12-04T02:51:38.106Z,241.73
2022-12-04T02:54:12.753Z,263.17
2022-12-04T02:56:43.520Z,292.97
2022-12-04T02:59:15.527Z,297.30
2022-12-04T03:01:45.461Z,259.42
2022-12-04T03:04:16.038Z,293.93
2022-12-04T03:06:45.063Z,289.60
2022-12-04T03:09:15.244Z,302.23
2022-12-04T03:11:45.735Z,235.13
2022-12-04T03:14:13.512Z,234.00
2022-12-04T03:16:41.854Z,246.93
2022-12-04T03:19:11.539Z,302.20
2022-12-04T03:21:41.544Z,229.47
2022-12-04T03:24:14.013Z,253.77
2022-12-04T03:26:47.465Z,223.20
2022-12-04T03:29:26.267Z,243.77
2022-12-04T03:32:01.322Z,277.10
2022-12-04T03:34:33.632Z,259.30
2022-12-04T03:39:35.397Z,245.07
2022-12-04T03:42:09.545Z,266.00
2022-12-04T03:44:48.553Z,278.73
2022-12-04T03:47:21.732Z,257.70
2022-12-04T03:50:01.783Z,272.10
2022-12-04T03:52:32.984Z,257.37
2022-12-04T03:55:24.046Z,390.23
2022-12-04T03:57:53.440Z,347.47
2022-12-04T04:00:22.560Z,380.83
2022-12-04T04:02:56.359Z,256.20
2022-12-04T04:05:25.139Z,260.80
2022-12-04T04:07:55.401Z,339.33
2022-12-04T04:10:25.875Z,312.17
2022-12-04T04:13:17.940Z,261.43
2022-12-04T04:16:07.910Z,399.93
2022-12-04T04:18:54.534Z,276.93
2022-12-04T04:21:43.890Z,280.83
2022-12-04T04:24:14.215Z,239.03
2022-12-04T04:26:49.552Z,299.33
2022-12-04T04:29:17.082Z,334.30
2022-12-04T04:31:49.703Z,279.10
2022-12-04T04:34:27.125Z,273.60
2022-12-04T04:36:58.005Z,312.37
2022-12-04T04:39:31.753Z,362.80
2022-12-04T04:42:08.880Z,422.53
2022-12-04T04:44:45.144Z,410.30
2022-12-04T04:47:16.153Z,491.50
2022-12-04T04:49:45.012Z,473.37
2022-12-04T04:52:12.932Z,380.80
2022-12-04T04:54:40.708Z,323.40
2022-12-04T04:57:08.498Z,457.27
2022-12-04T04:59:36.003Z,337.17
2022-12-04T05:02:03.999Z,456.87
2022-12-04T05:04:31.677Z,507.23
2022-12-04T05:06:59.486Z,775.17
2022-12-04T05:09:27.089Z,473.93
2022-12-04T05:11:54.862Z,574.17
2022-12-04T05:14:22.456Z,320.33
2022-12-04T05:16:50.238Z,390.93
2022-12-04T05:19:36.437Z,291.27
2022-12-04T05:22:04.285Z,358.07
2022-12-04T05:24:31.868Z,326.27
2022-12-04T05:26:59.633Z,276.70
2022-12-04T05:29:30.374Z,276.83
2022-12-04T05:32:00.626Z,277.60
2022-12-04T05:34:28.346Z,294.97
2022-12-04T05:36:56.113Z,316.30
2022-12-04T05:39:23.736Z,249.83
2022-12-04T05:41:51.607Z,359.03
2022-12-04T05:44:19.119Z,282.17
2022-12-04T05:46:47.043Z,249.43
2022-12-04T05:49:14.649Z,286.47
2022-12-04T05:51:42.498Z,298.77
2022-12-04T05:54:10.198Z,367.37
2022-12-04T05:56:38.020Z,284.67
2022-12-04T05:59:05.688Z,264.07
2022-12-04T06:01:33.551Z,276.27
2022-12-04T06:04:01.187Z,346.13
2022-12-04T06:06:29.145Z,286.10
2022-12-04T06:08:58.709Z,273.33
2022-12-04T06:11:33.611Z,259.03
2022-12-04T06:14:01.882Z,293.87
2022-12-04T06:16:30.904Z,236.23
2022-12-04T06:18:59.923Z,255.67
2022-12-04T06:21:29.551Z,204.53
2022-12-04T06:23:57.259Z,217.83
2022-12-04T06:26:25.561Z,203.10
2022-12-04T06:28:54.514Z,213.70
2022-12-04T06:31:22.427Z,250.33
2022-12-04T06:33:50.180Z,296.73
2022-12-04T06:36:19.640Z,292.50
2022-12-04T06:38:47.802Z,238.93
2022-12-04T06:41:16.986Z,199.73
2022-12-04T06:43:44.969Z,279.93
2022-12-04T06:46:17.166Z,245.90
2022-12-04T06:51:17.585Z,304.87
2022-12-04T06:53:45.320Z,260.43
2022-12-04T06:56:16.246Z,219.23
2022-12-04T06:58:44.235Z,188.07
2022-12-04T07:01:13.905Z,233.77
2022-12-04T07:03:46.306Z,193.63
2022-12-04T07:06:20.193Z,183.07
2022-12-04T07:08:48.646Z,160.80
2022-12-04T07:11:16.495Z,145.63
2022-12-04T07:13:44.152Z,197.33
2022-12-04T07:16:14.022Z,212.27
2022-12-04T07:18:41.766Z,288.80
2022-12-04T07:21:10.778Z,235.20
2022-12-04T07:23:38.632Z,240.53
2022-12-04T07:26:10.234Z,210.17
2022-12-04T07:28:38.338Z,163.65
2022-12-04T07:31:10.776Z,244.20
2022-12-04T07:33:38.739Z,190.00
2022-12-04T07:36:07.654Z,220.50
2022-12-04T07:38:35.496Z,213.33
2022-12-04T07:41:04.656Z,214.53
2022-12-04T07:43:32.629Z,221.90
2022-12-04T07:46:04.448Z,190.97
2022-12-04T07:48:33.578Z,175.13
2022-12-04T07:51:12.583Z,148.90
2022-12-04T07:53:40.693Z,150.43
2022-12-04T07:56:08.985Z,252.20
2022-12-04T07:58:36.741Z,370.07
2022-12-04T08:01:07.800Z,257.60
2022-12-04T08:03:35.708Z,144.47
2022-12-04T08:06:04.524Z,126.20
2022-12-04T08:08:32.693Z,105.05
2022-12-04T08:11:00.541Z,106.90
2022-12-04T08:13:28.110Z,152.73
2022-12-04T08:15:56.018Z,118.40
2022-12-04T08:18:23.536Z,149.38
2022-12-04T08:20:51.386Z,99.43
2022-12-04T08:23:18.993Z,97.15
2022-12-04T08:25:46.774Z,216.73
2022-12-04T08:28:14.381Z,140.07
2022-12-04T08:30:42.248Z,109.35
2022-12-04T08:33:09.828Z,88.00
2022-12-04T08:35:37.672Z,74.28
2022-12-04T08:38:05.525Z,76.40
2022-12-04T08:40:33.347Z,83.05
2022-12-04T08:43:01.186Z,95.75
2022-12-04T08:45:32.209Z,82.82
2022-12-04T08:48:00.624Z,85.05
2022-12-04T08:50:28.560Z,100.63
2022-12-04T08:52:56.206Z,92.80
2022-12-04T08:55:24.185Z,97.03
2022-12-04T08:57:55.228Z,90.60
2022-12-04T09:00:27.219Z,95.07
2022-12-04T09:02:54.742Z,100.88
2022-12-04T09:05:22.944Z,242.50
2022-12-04T09:07:50.669Z,101.63
2022-12-04T09:10:18.755Z,145.30
2022-12-04T09:12:46.536Z,812.95
2022-12-04T09:15:14.766Z,220.52
2022-12-04T09:17:42.308Z,102.25
2022-12-04T09:20:10.294Z,88.32
2022-12-04T09:23:02.416Z,106.63
2022-12-04T09:25:26.960Z,93.28
2022-12-04T09:27:54.528Z,318.30
2022-12-04T09:30:22.386Z,102.50
2022-12-04T09:32:49.962Z,95.78
2022-12-04T09:35:18.020Z,98.72
2022-12-04T09:37:45.729Z,93.53
2022-12-04T09:40:24.407Z,109.82
2022-12-04T09:43:01.338Z,99.18
2022-12-04T09:45:34.835Z,102.82
2022-12-04T09:48:04.579Z,108.45
2022-12-04T09:50:37.858Z,106.25
2022-12-04T09:53:14.545Z,107.88
2022-12-04T09:55:52.788Z,102.18
2022-12-04T09:58:22.802Z,105.30
2022-12-04T10:00:52.373Z,105.05
2022-12-04T10:03:21.210Z,113.72
2022-12-04T10:05:57.794Z,133.23
2022-12-04T10:08:29.534Z,116.60
2022-12-04T10:10:57.683Z,150.40
2022-12-04T10:13:44.398Z,119.20
2022-12-04T10:16:23.311Z,118.95
2022-12-04T10:19:04.357Z,129.55
2022-12-04T10:21:58.653Z,134.45
2022-12-04T10:24:35.628Z,175.55
2022-12-04T10:27:07.422Z,213.38
2022-12-04T10:29:38.754Z,161.15
2022-12-04T10:32:23.825Z,158.75
2022-12-04T10:34:54.269Z,259.92
2022-12-04T10:37:23.237Z,194.65
2022-12-04T10:39:59.208Z,265.30
2022-12-04T10:42:33.545Z,189.95
2022-12-04T10:45:05.458Z,221.07
2022-12-04T10:47:34.510Z,168.88
2022-12-04T10:50:13.686Z,181.60
2022-12-04T10:52:41.934Z,376.10
2022-12-04T10:55:09.987Z,249.18
2022-12-04T10:57:39.733Z,265.52
2022-12-04T11:00:27.047Z,223.38
2022-12-04T11:02:56.978Z,207.15
2022-12-04T11:05:35.681Z,230.70
2022-12-04T11:08:05.576Z,175.73
2022-12-04T11:10:40.651Z,185.20
2022-12-04T11:13:13.214Z,190.32
2022-12-04T11:18:09.395Z,218.10
2022-12-04T11:20:44.055Z,267.70
2022-12-04T11:23:16.664Z,392.80
2022-12-04T11:25:48.971Z,219.93
2022-12-04T11:28:33.892Z,193.10
2022-12-04T11:31:08.603Z,164.20
2022-12-04T11:33:47.189Z,274.00
2022-12-04T11:36:20.663Z,216.50
2022-12-04T11:38:49.424Z,165.82
2022-12-04T11:41:30.879Z,185.60
2022-12-04T11:44:00.557Z,218.32
2022-12-04T11:46:30.890Z,276.88
2022-12-04T11:48:59.296Z,163.57
2022-12-04T11:51:49.319Z,173.13
2022-12-04T11:54:36.842Z,123.00
2022-12-04T11:57:23.344Z,104.85
2022-12-04T12:00:09.869Z,106.93
2022-12-04T12:02:59.234Z,113.70
2022-12-04T12:05:40.237Z,187.98
2022-12-04T12:08:07.857Z,122.63
2022-12-04T12:11:02.341Z,134.43
2022-12-04T12:13:41.492Z,178.68
2022-12-04T12:16:09.642Z,102.70
2022-12-04T12:18:46.441Z,95.32
2022-12-04T12:21:35.261Z,89.90
2022-12-04T12:24:08.013Z,82.55
2022-12-04T12:26:48.283Z,113.45
2022-12-04T12:29:28.135Z,100.07
2022-12-04T12:31:56.566Z,110.63
2022-12-04T12:34:37.134Z,108.15
2022-12-04T12:37:25.718Z,164.20
2022-12-04T12:40:03.681Z,123.25
2022-12-04T12:42:35.244Z,130.02
2022-12-04T12:45:22.014Z,172.30
2022-12-04T12:47:51.442Z,131.82
2022-12-04T12:50:22.678Z,203.37
2022-12-04T12:52:55.933Z,134.13
2022-12-04T12:55:25.370Z,120.80
2022-12-04T12:58:13.738Z,131.77
2022-12-04T13:00:47.449Z,155.32
2022-12-04T13:03:35.358Z,164.67
2022-12-04T13:06:05.923Z,178.23
2022-12-04T13:08:45.006Z,261.57
2022-12-04T13:11:18.558Z,326.63
2022-12-04T13:13:48.545Z,184.83
2022-12-04T13:16:16.407Z,256.87
2022-12-04T13:18:48.858Z,227.43
2022-12-04T13:21:30.075Z,265.00
2022-12-04T13:23:58.260Z,691.83
2022-12-04T13:26:29.111Z,390.23
2022-12-04T13:29:26.555Z,378.13
2022-12-04T13:32:00.679Z,343.20
2022-12-04T13:34:44.911Z,277.27
2022-12-04T13:37:30.858Z,398.03
2022-12-04T13:40:17.890Z,237.33
2022-12-04T13:42:45.497Z,257.77
2022-12-04T13:45:25.390Z,228.47
2022-12-04T13:48:00.133Z,279.17
2022-12-04T13:50:28.305Z,402.53
2022-12-04T13:52:55.943Z,216.50
2022-12-04T13:55:30.143Z,303.63
2022-12-04T13:58:03.370Z,385.57
2022-12-04T14:00:35.796Z,431.93
2022-12-04T14:03:05.714Z,424.70
2022-12-04T14:05:41.263Z,367.23
2022-12-04T14:08:22.453Z,415.57
2022-12-04T14:11:08.962Z,468.20
2022-12-04T14:13:42.900Z,340.90
2022-12-04T14:16:22.799Z,411.00
2022-12-04T14:18:52.611Z,279.43
2022-12-04T14:21:20.513Z,387.70
2022-12-04T14:23:48.490Z,470.50
2022-12-04T14:26:29.314Z,473.13
2022-12-04T14:29:06.738Z,372.93
2022-12-04T14:31:40.270Z,412.13
2022-12-04T14:36:37.672Z,317.30
2022-12-04T14:39:08.469Z,293.70
2022-12-04T14:41:36.433Z,274.63
2022-12-04T14:44:04.098Z,394.63
2022-12-04T14:46:48.521Z,384.97
2022-12-04T14:49:35.787Z,386.93
2022-12-04T14:52:24.226Z,213.53
2022-12-04T14:55:07.448Z,290.83
2022-12-04T14:57:55.110Z,461.10
2022-12-04T15:00:24.548Z,411.00
2022-12-04T15:02:55.682Z,459.43
2022-12-04T15:05:28.124Z,279.13
2022-12-04T15:08:04.019Z,310.63
2022-12-04T15:10:52.388Z,363.40
2022-12-04T15:13:30.924Z,549.13
2022-12-04T15:15:59.138Z,331.13
2022-12-04T15:18:27.261Z,478.10
2022-12-04T15:20:57.241Z,374.40
2022-12-04T15:23:34.135Z,300.27
2022-12-04T15:26:03.020Z,395.47
2022-12-04T15:28:48.137Z,215.93
2022-12-04T15:31:24.356Z,431.67
2022-12-04T15:33:54.314Z,637.10
2022-12-04T15:36:30.967Z,278.50
2022-12-04T15:39:00.237Z,369.33
2022-12-04T15:41:30.153Z,423.73
2022-12-04T15:43:58.395Z,502.87
2022-12-04T15:46:27.511Z,536.40
2022-12-04T15:49:05.247Z,595.80
2022-12-04T15:51:32.880Z,373.93
2022-12-04T15:54:00.894Z,672.07
2022-12-04T15:56:29.450Z,472.33
2022-12-04T15:59:01.739Z,344.50
2022-12-04T16:01:39.383Z,426.53
2022-12-04T16:04:19.322Z,607.33
2022-12-04T16:06:48.316Z,411.13
2022-12-04T16:09:16.187Z,307.57
2022-12-04T16:11:44.201Z,467.77
2022-12-04T16:14:12.125Z,568.10
2022-12-04T16:16:45.069Z,632.33
2022-12-04T16:21:40.438Z,301.03
2022-12-04T16:24:11.044Z,671.67
2022-12-04T16:26:38.636Z,542.67
2022-12-04T16:29:06.718Z,423.90
2022-12-04T16:31:34.653Z,271.17
2022-12-04T16:34:02.565Z,448.33
2022-12-04T16:36:30.196Z,659.90
2022-12-04T16:38:58.128Z,383.83
2022-12-04T16:41:25.716Z,634.17
2022-12-04T16:43:55.977Z,408.57
2022-12-04T16:46:25.197Z,389.60
2022-12-04T16:48:53.416Z,568.63
2022-12-04T16:51:24.971Z,713.07
2022-12-04T16:53:53.312Z,698.95
2022-12-04T16:56:21.507Z,568.37
2022-12-04T16:58:50.072Z,717.00
2022-12-04T17:01:37.319Z,685.90
2022-12-04T17:04:05.494Z,458.57
2022-12-04T17:06:33.203Z,362.23
2022-12-04T17:09:01.188Z,492.47
2022-12-04T17:11:28.802Z,540.50
2022-12-04T17:13:56.676Z,511.27
2022-12-04T17:16:29.006Z,577.77
2022-12-04T17:18:56.887Z,577.67
2022-12-04T17:21:24.429Z,750.67
2022-12-04T17:23:52.453Z,588.47
2022-12-04T17:26:20.140Z,408.87
2022-12-04T17:28:50.038Z,747.90
2022-12-04T17:31:20.103Z,631.17
2022-12-04T17:33:48.474Z,552.63
2022-12-04T17:36:18.968Z,556.70
2022-12-04T17:38:47.279Z,469.70
2022-12-04T17:41:15.447Z,411.27
2022-12-04T17:43:44.102Z,647.87
2022-12-04T17:46:12.811Z,648.27
2022-12-04T17:48:40.814Z,724.10
2022-12-04T17:51:26.397Z,552.57
2022-12-04T17:53:54.457Z,646.37
2022-12-04T17:56:22.961Z,806.13
2022-12-04T17:58:51.732Z,616.27
2022-12-04T18:01:21.640Z,490.87
2022-12-04T18:03:50.642Z,504.33
2022-12-04T18:06:22.711Z,485.17
2022-12-04T18:08:51.184Z,700.87
2022-12-04T18:11:20.947Z,621.63
2022-12-04T18:13:49.701Z,491.87
2022-12-04T18:16:17.474Z,520.03
2022-12-04T18:18:48.670Z,587.53
2022-12-04T18:21:16.225Z,368.10
2022-12-04T18:23:47.300Z,720.53
2022-12-04T18:26:17.033Z,632.33
2022-12-04T18:28:45.402Z,476.70
2022-12-04T18:31:13.514Z,623.53
2022-12-04T18:33:42.327Z,674.67
2022-12-04T18:36:14.859Z,552.80
2022-12-04T18:38:42.927Z,515.40
2022-12-04T18:41:11.879Z,578.97
2022-12-04T18:43:58.658Z,537.07
2022-12-04T18:46:26.714Z,651.27
2022-12-04T18:48:55.330Z,514.60
2022-12-04T18:51:30.302Z,458.63
2022-12-04T18:53:59.442Z,762.00
2022-12-04T18:56:27.403Z,704.73
2022-12-04T18:59:02.872Z,677.73
2022-12-04T19:01:31.561Z,576.60
2022-12-04T19:04:00.512Z,446.40
2022-12-04T19:06:35.557Z,698.90
2022-12-04T19:09:04.844Z,405.73
2022-12-04T19:11:32.623Z,545.23
2022-12-04T19:14:01.011Z,545.37
2022-12-04T19:16:28.888Z,531.70
2022-12-04T19:18:57.439Z,602.93
2022-12-04T19:21:25.466Z,805.93
2022-12-04T19:23:59.015Z,559.90
2022-12-04T19:26:30.823Z,634.87
2022-12-04T19:28:58.701Z,509.13
2022-12-04T19:31:28.494Z,463.23
2022-12-04T19:33:57.729Z,714.83
2022-12-04T19:36:26.470Z,513.93
2022-12-04T19:38:54.695Z,532.47
2022-12-04T19:41:24.139Z,616.10
2022-12-04T19:43:53.240Z,630.43
2022-12-04T19:46:22.942Z,678.17
2022-12-04T19:48:51.074Z,529.37
2022-12-04T19:51:19.680Z,801.90
2022-12-04T19:53:48.697Z,507.70
2022-12-04T19:56:17.730Z,499.30
2022-12-04T19:58:46.253Z,604.10
2022-12-04T20:01:18.511Z,665.20
2022-12-04T20:03:46.442Z,461.67
2022-12-04T20:06:15.932Z,522.73
2022-12-04T20:09:03.989Z,574.17
2022-12-04T20:11:31.838Z,654.27
2022-12-04T20:14:03.535Z,593.23
2022-12-04T20:16:31.862Z,618.40
2022-12-04T20:19:00.237Z,478.23
2022-12-04T20:21:30.619Z,721.33
2022-12-04T20:23:59.474Z,628.10
2022-12-04T20:26:31.865Z,651.63
2022-12-04T20:29:00.823Z,583.80
2022-12-04T20:31:29.891Z,871.87
2022-12-04T20:33:58.802Z,774.20
2022-12-04T20:36:27.945Z,484.63
2022-12-04T20:38:58.205Z,606.40
2022-12-04T20:41:26.431Z,626.63
2022-12-04T20:43:54.360Z,1065.77
2022-12-04T20:46:23.210Z,611.47
2022-12-04T20:48:53.204Z,667.47
2022-12-04T20:51:25.425Z,817.67
2022-12-04T20:53:54.292Z,668.87
2022-12-04T20:56:23.263Z,712.13
2022-12-04T20:58:51.162Z,878.53
2022-12-04T21:01:19.210Z,760.77
2022-12-04T21:03:48.247Z,783.53
2022-12-04T21:06:20.409Z,606.70
2022-12-04T21:08:56.719Z,510.93
2022-12-04T21:11:25.390Z,768.33
2022-12-04T21:14:12.752Z,645.40
2022-12-04T21:16:40.336Z,430.60
2022-12-04T21:19:09.090Z,459.10
2022-12-04T21:21:36.783Z,331.40
2022-12-04T21:24:05.846Z,464.70
2022-12-04T21:26:33.956Z,564.27
2022-12-04T21:29:02.554Z,518.50
2022-12-04T21:31:30.971Z,573.00
2022-12-04T21:33:59.809Z,486.37
2022-12-04T21:36:27.748Z,511.63
2022-12-04T21:38:56.002Z,494.57
2022-12-04T21:41:42.104Z,430.13
2022-12-04T21:44:11.287Z,607.47
2022-12-04T21:46:39.170Z,617.73
2022-12-04T21:49:07.795Z,610.17
2022-12-04T21:54:23.770Z,413.93
2022-12-04T21:56:51.444Z,415.43
2022-12-04T21:59:19.350Z,373.80
2022-12-04T22:01:47.058Z,502.80
2022-12-04T22:04:15.281Z,567.30
2022-12-04T22:06:42.926Z,469.67
2022-12-04T22:09:11.582Z,431.97
2022-12-04T22:11:41.347Z,511.47
2022-12-04T22:14:09.558Z,472.77
2022-12-04T22:16:41.846Z,582.10
2022-12-04T22:19:14.422Z,363.90
2022-12-04T22:21:41.977Z,278.17
2022-12-04T22:24:10.640Z,416.47
2022-12-04T22:26:38.376Z,274.23
2022-12-04T22:29:27.025Z,351.33
2022-12-04T22:31:53.923Z,365.97
2022-12-04T22:34:21.898Z,268.70
2022-12-04T22:36:50.279Z,235.13
2022-12-04T22:39:18.163Z,227.30
2022-12-04T22:41:46.032Z,157.03
2022-12-04T22:44:14.103Z,197.77
2022-12-04T22:46:41.706Z,137.30
2022-12-04T22:49:09.606Z,156.80
2022-12-04T22:51:37.111Z,190.53
2022-12-04T22:54:06.311Z,197.23
2022-12-04T22:56:33.936Z,164.47
2022-12-04T22:59:01.868Z,187.97
2022-12-04T23:01:30.672Z,217.57
2022-12-04T23:03:58.984Z,216.93
2022-12-04T23:06:27.740Z,137.77
2022-12-04T23:08:56.575Z,190.97
2022-12-04T23:11:25.045Z,228.77
2022-12-04T23:13:55.054Z,280.97
2022-12-04T23:16:23.687Z,179.40
2022-12-04T23:18:52.052Z,227.30
2022-12-04T23:21:20.655Z,167.83
2022-12-04T23:23:48.963Z,177.93
2022-12-04T23:26:17.935Z,231.37
2022-12-04T23:28:46.110Z,241.57
2022-12-04T23:31:13.941Z,187.33
2022-12-04T23:33:42.129Z,177.33
2022-12-04T23:36:11.126Z,164.40
2022-12-04T23:38:40.002Z,150.43
2022-12-04T23:41:09.142Z,140.93
2022-12-04T23:43:36.972Z,136.90
2022-12-04T23:46:10.601Z,172.80
2022-12-04T23:48:40.207Z,166.30
2022-12-04T23:51:08.151Z,183.03
2022-12-04T23:53:36.279Z,145.73
2022-12-04T23:56:07.797Z,168.83
2022-12-04T23:58:36.117Z,132.35
